CMA CGM Kingfish — A8YW9 — position and weather

sailwx.info

Track history (hours):
 
Tides and Currents Weather Stations Pressure Air Temp Water Temp Dewpoint Dewpoint Depression Visibility Wind Speed Wind Dir Waves Ship Positions

CMA CGM Kingfish

Last reported at 2015-Mar-24 06:33 UTC. Time now 2015-Mar-27 17:21 UTC.
Position N 31°57' W 080°33'.

Length 294 m; draft 12.8 m.

Type: Ship (hazmat cat A). MMSI: 636015147.

Date/timePositionNaut miles runAvg speedWind from/ knotsBaromVisibWave heightAir tempDewpointWater temp
2015-Mar-24 06:33N 31°57' W 080°33'9 9.4
2015-Mar-24 05:33N 31°58' W 080°44'1212.4
2015-Mar-24 04:33N 32°04' W 080°57'8 7.7
2015-Mar-24 03:33N 32°05' W 081°06'3 3.4
2015-Mar-24 02:33N 32°08' W 081°08'0 0.4
2015-Mar-24 01:32N 32°08' W 081°08'0 0.0
2015-Mar-24 00:32N 32°08' W 081°08'0 0.0
2015-Mar-23 23:32N 32°08' W 081°08'0 0.0
2015-Mar-23 22:32N 32°08' W 081°08'0 0.0
2015-Mar-23 21:32N 32°08' W 081°08'0 0.0
2015-Mar-23 20:32N 32°08' W 081°08'0 0.0
2015-Mar-23 19:32N 32°08' W 081°08'0 0.0
2015-Mar-23 18:32N 32°08' W 081°08'0 0.0
2015-Mar-23 17:32N 32°08' W 081°08'0 0.0
2015-Mar-23 16:32N 32°08' W 081°08'0 0.0
2015-Mar-23 15:32N 32°08' W 081°08'0 0.0
2015-Mar-23 14:32N 32°08' W 081°08'0 0.0
2015-Mar-23 13:32N 32°08' W 081°08'0 0.0
2015-Mar-23 12:32N 32°08' W 081°08'0 0.0
2015-Mar-23 11:32N 32°08' W 081°08'0 0.0
2015-Mar-23 10:32N 32°08' W 081°08'0 0.0
2015-Mar-23 09:32N 32°08' W 081°08'0 0.0
2015-Mar-23 08:32N 32°08' W 081°08'0 0.0
2015-Mar-23 07:32N 32°08' W 081°08'0 0.0
2015-Mar-23 06:32N 32°08' W 081°08'0 0.0
2015-Mar-23 05:29N 32°08' W 081°08'0 0.0
2015-Mar-23 04:32N 32°08' W 081°08'1 0.9
2015-Mar-23 03:33N 32°07' W 081°08'6 5.8
2015-Mar-23 02:34N 32°06' W 081°01'1111.4
2015-Mar-23 01:33N 32°01' W 080°48'10 9.7
2015-Mar-23 00:33N 31°58' W 080°38'5 1.0
2015-Mar-22 19:30N 31°57' W 080°32'0 0.1
2015-Mar-22 18:27N 31°57' W 080°32'0 0.0
2015-Mar-22 17:27N 31°57' W 080°32'0 0.1
2015-Mar-22 16:21N 31°57' W 080°32'0 0.0
2015-Mar-22 11:18N 31°57' W 080°32'0 0.0
2015-Mar-22 10:33N 31°57' W 080°32'0 0.1
2015-Mar-22 09:15N 31°57' W 080°32'0 0.0
2015-Mar-22 08:21N 31°57' W 080°32'0 0.2
2015-Mar-22 07:33N 31°57' W 080°32'0 0.1
2015-Mar-22 06:33N 31°57' W 080°32'0 0.0
2015-Mar-22 05:33N 31°57' W 080°32'0 0.0
2015-Mar-22 04:33N 31°57' W 080°32'0 0.1
2015-Mar-22 03:33N 31°57' W 080°32'0 0.2
2015-Mar-22 02:27N 31°57' W 080°32'0 0.0
2015-Mar-22 01:30N 31°57' W 080°32'0 0.0
2015-Mar-22 00:33N 31°57' W 080°32'0 0.0
2015-Mar-21 23:21N 31°57' W 080°32'1 1.6
2015-Mar-21 22:33N 31°58' W 080°31'11 8.8
2015-Mar-21 21:21N 32°00' W 080°19'  
2015-Mar-19 11:20N 39°24' W 073°53'1519.3
2015-Mar-19 10:33N 39°39' W 073°52'4614.6
2015-Mar-19 07:25N 40°24' W 073°49'10 9.3
2015-Mar-19 06:24N 40°31' W 073°59'1011.8
2015-Mar-19 05:33N 40°39' W 074°06'2 2.2
2015-Mar-19 04:33N 40°40' W 074°09'0 0.0
2015-Mar-19 03:29N 40°40' W 074°09'0 0.0
2015-Mar-19 02:32N 40°40' W 074°09'0 0.0
2015-Mar-19 01:29N 40°40' W 074°09'0 0.0
2015-Mar-19 00:29N 40°40' W 074°09'0 0.0
2015-Mar-18 23:29N 40°40' W 074°09'0 0.0
2015-Mar-18 22:29N 40°40' W 074°09'0 0.0
2015-Mar-18 21:29N 40°40' W 074°09'0 0.0
2015-Mar-18 20:29N 40°40' W 074°09'0 0.0
2015-Mar-18 19:23N 40°40' W 074°09'0 0.0
2015-Mar-18 18:29N 40°40' W 074°09'0 0.0
2015-Mar-18 17:29N 40°40' W 074°09'0 0.0
2015-Mar-18 16:23N 40°40' W 074°09'0 0.0
2015-Mar-18 15:29N 40°40' W 074°09'0 0.0
2015-Mar-18 14:29N 40°40' W 074°09'0 0.0
2015-Mar-18 13:32N 40°40' W 074°09'0 0.0
2015-Mar-18 12:23N 40°40' W 074°09'0 0.0
2015-Mar-18 11:23N 40°40' W 074°09'0 0.0
2015-Mar-18 10:29N 40°40' W 074°09'0 0.0
2015-Mar-18 09:29N 40°40' W 074°09'0 0.0
2015-Mar-18 08:29N 40°40' W 074°09'0 0.0
2015-Mar-18 07:29N 40°40' W 074°09'0 0.0
2015-Mar-18 06:29N 40°40' W 074°09'0 0.0
2015-Mar-18 05:29N 40°40' W 074°09'0 0.0
2015-Mar-18 04:29N 40°40' W 074°09'0 0.0
2015-Mar-18 03:29N 40°40' W 074°09'0 0.0
2015-Mar-18 02:23N 40°40' W 074°09'0 0.0
2015-Mar-18 01:32N 40°40' W 074°09'0 0.0
2015-Mar-18 00:32N 40°40' W 074°09'0 0.0
2015-Mar-17 23:32N 40°40' W 074°09'0 0.0
2015-Mar-17 22:32N 40°40' W 074°09'0 0.0
2015-Mar-17 21:29N 40°40' W 074°09'0 0.0
2015-Mar-17 20:29N 40°40' W 074°09'0 0.0
2015-Mar-17 19:32N 40°40' W 074°09'0 0.0
2015-Mar-17 18:29N 40°40' W 074°09'1 1.4
2015-Mar-17 17:34N 40°39' W 074°08'4 4.4
2015-Mar-17 16:33N 40°37' W 074°03'1211.6
2015-Mar-17 15:34N 40°28' W 073°52'5 5.0
2015-Mar-17 14:33N 40°29' W 073°45'0 0.1
2015-Mar-17 13:24N 40°28' W 073°45'5 6.2
2015-Mar-17 12:31N 40°24' W 073°42'10 9.9
2015-Mar-17 11:28N 40°18' W 073°31'1718.2
2015-Mar-17 10:32N 40°08' W 073°12'1919.4
2015-Mar-17 09:33N 40°00' W 072°49'1919.5
2015-Mar-17 08:34N 39°52' W 072°26'2019.7
2015-Mar-17 07:34N 39°44' W 072°03'1919.5
2015-Mar-17 06:33N 39°36' W 071°40'1918.6
2015-Mar-17 05:31N 39°28' W 071°17'2019.1
2015-Mar-17 04:28N 39°19' W 070°54'2119.5
2015-Mar-17 03:24N 39°11' W 070°29'1213.9
2015-Mar-17 02:32N 39°06' W 070°15'  
Track history (hours):
 
Tides and Currents Weather Stations Pressure Air Temp Water Temp Dewpoint Dewpoint Depression Visibility Wind Speed Wind Dir Waves Ship Positions

CMA CGM Kingfish

Last reported at 2015-Mar-24 06:33 UTC. Time now 2015-Mar-27 17:21 UTC.
Position N 31°57' W 080°33'.

Length 294 m; draft 12.8 m.

Type: Ship (hazmat cat A). MMSI: 636015147.

Date/timePositionNaut miles runAvg speedWind from/ knotsBaromVisibWave heightAir tempDewpointWater temp
2015-Mar-24 06:33N 31°57' W 080°33'9 9.4
2015-Mar-24 05:33N 31°58' W 080°44'1212.4
2015-Mar-24 04:33N 32°04' W 080°57'8 7.7
2015-Mar-24 03:33N 32°05' W 081°06'3 3.4
2015-Mar-24 02:33N 32°08' W 081°08'0 0.4
2015-Mar-24 01:32N 32°08' W 081°08'0 0.0
2015-Mar-24 00:32N 32°08' W 081°08'0 0.0
2015-Mar-23 23:32N 32°08' W 081°08'0 0.0
2015-Mar-23 22:32N 32°08' W 081°08'0 0.0
2015-Mar-23 21:32N 32°08' W 081°08'0 0.0
2015-Mar-23 20:32N 32°08' W 081°08'0 0.0
2015-Mar-23 19:32N 32°08' W 081°08'0 0.0
2015-Mar-23 18:32N 32°08' W 081°08'0 0.0
2015-Mar-23 17:32N 32°08' W 081°08'0 0.0
2015-Mar-23 16:32N 32°08' W 081°08'0 0.0
2015-Mar-23 15:32N 32°08' W 081°08'0 0.0
2015-Mar-23 14:32N 32°08' W 081°08'0 0.0
2015-Mar-23 13:32N 32°08' W 081°08'0 0.0
2015-Mar-23 12:32N 32°08' W 081°08'0 0.0
2015-Mar-23 11:32N 32°08' W 081°08'0 0.0
2015-Mar-23 10:32N 32°08' W 081°08'0 0.0
2015-Mar-23 09:32N 32°08' W 081°08'0 0.0
2015-Mar-23 08:32N 32°08' W 081°08'0 0.0
2015-Mar-23 07:32N 32°08' W 081°08'0 0.0
2015-Mar-23 06:32N 32°08' W 081°08'0 0.0
2015-Mar-23 05:29N 32°08' W 081°08'0 0.0
2015-Mar-23 04:32N 32°08' W 081°08'1 0.9
2015-Mar-23 03:33N 32°07' W 081°08'6 5.8
2015-Mar-23 02:34N 32°06' W 081°01'1111.4
2015-Mar-23 01:33N 32°01' W 080°48'10 9.7
2015-Mar-23 00:33N 31°58' W 080°38'5 1.0
2015-Mar-22 19:30N 31°57' W 080°32'0 0.1
2015-Mar-22 18:27N 31°57' W 080°32'0 0.0
2015-Mar-22 17:27N 31°57' W 080°32'0 0.1
2015-Mar-22 16:21N 31°57' W 080°32'0 0.0
2015-Mar-22 11:18N 31°57' W 080°32'0 0.0
2015-Mar-22 10:33N 31°57' W 080°32'0 0.1
2015-Mar-22 09:15N 31°57' W 080°32'0 0.0
2015-Mar-22 08:21N 31°57' W 080°32'0 0.2
2015-Mar-22 07:33N 31°57' W 080°32'0 0.1
2015-Mar-22 06:33N 31°57' W 080°32'0 0.0
2015-Mar-22 05:33N 31°57' W 080°32'0 0.0
2015-Mar-22 04:33N 31°57' W 080°32'0 0.1
2015-Mar-22 03:33N 31°57' W 080°32'0 0.2
2015-Mar-22 02:27N 31°57' W 080°32'0 0.0
2015-Mar-22 01:30N 31°57' W 080°32'0 0.0
2015-Mar-22 00:33N 31°57' W 080°32'0 0.0
2015-Mar-21 23:21N 31°57' W 080°32'1 1.6
2015-Mar-21 22:33N 31°58' W 080°31'11 8.8
2015-Mar-21 21:21N 32°00' W 080°19'  
2015-Mar-19 11:20N 39°24' W 073°53'1519.3
2015-Mar-19 10:33N 39°39' W 073°52'4614.6
2015-Mar-19 07:25N 40°24' W 073°49'10 9.3
2015-Mar-19 06:24N 40°31' W 073°59'1011.8
2015-Mar-19 05:33N 40°39' W 074°06'2 2.2
2015-Mar-19 04:33N 40°40' W 074°09'0 0.0
2015-Mar-19 03:29N 40°40' W 074°09'0 0.0
2015-Mar-19 02:32N 40°40' W 074°09'0 0.0
2015-Mar-19 01:29N 40°40' W 074°09'0 0.0
2015-Mar-19 00:29N 40°40' W 074°09'0 0.0
2015-Mar-18 23:29N 40°40' W 074°09'0 0.0
2015-Mar-18 22:29N 40°40' W 074°09'0 0.0
2015-Mar-18 21:29N 40°40' W 074°09'0 0.0
2015-Mar-18 20:29N 40°40' W 074°09'0 0.0
2015-Mar-18 19:23N 40°40' W 074°09'0 0.0
2015-Mar-18 18:29N 40°40' W 074°09'0 0.0
2015-Mar-18 17:29N 40°40' W 074°09'0 0.0
2015-Mar-18 16:23N 40°40' W 074°09'0 0.0
2015-Mar-18 15:29N 40°40' W 074°09'0 0.0
2015-Mar-18 14:29N 40°40' W 074°09'0 0.0
2015-Mar-18 13:32N 40°40' W 074°09'0 0.0
2015-Mar-18 12:23N 40°40' W 074°09'0 0.0
2015-Mar-18 11:23N 40°40' W 074°09'0 0.0
2015-Mar-18 10:29N 40°40' W 074°09'0 0.0
2015-Mar-18 09:29N 40°40' W 074°09'0 0.0
2015-Mar-18 08:29N 40°40' W 074°09'0 0.0
2015-Mar-18 07:29N 40°40' W 074°09'0 0.0
2015-Mar-18 06:29N 40°40' W 074°09'0 0.0
2015-Mar-18 05:29N 40°40' W 074°09'0 0.0
2015-Mar-18 04:29N 40°40' W 074°09'0 0.0
2015-Mar-18 03:29N 40°40' W 074°09'0 0.0
2015-Mar-18 02:23N 40°40' W 074°09'0 0.0
2015-Mar-18 01:32N 40°40' W 074°09'0 0.0
2015-Mar-18 00:32N 40°40' W 074°09'0 0.0
2015-Mar-17 23:32N 40°40' W 074°09'0 0.0
2015-Mar-17 22:32N 40°40' W 074°09'0 0.0
2015-Mar-17 21:29N 40°40' W 074°09'0 0.0
2015-Mar-17 20:29N 40°40' W 074°09'0 0.0
2015-Mar-17 19:32N 40°40' W 074°09'0 0.0
2015-Mar-17 18:29N 40°40' W 074°09'1 1.4
2015-Mar-17 17:34N 40°39' W 074°08'4 4.4
2015-Mar-17 16:33N 40°37' W 074°03'1211.6
2015-Mar-17 15:34N 40°28' W 073°52'5 5.0
2015-Mar-17 14:33N 40°29' W 073°45'0 0.1
2015-Mar-17 13:24N 40°28' W 073°45'5 6.2
2015-Mar-17 12:31N 40°24' W 073°42'10 9.9
2015-Mar-17 11:28N 40°18' W 073°31'1718.2
2015-Mar-17 10:32N 40°08' W 073°12'1919.4
2015-Mar-17 09:33N 40°00' W 072°49'1919.5
2015-Mar-17 08:34N 39°52' W 072°26'2019.7
2015-Mar-17 07:34N 39°44' W 072°03'1919.5
2015-Mar-17 06:33N 39°36' W 071°40'1918.6
2015-Mar-17 05:31N 39°28' W 071°17'2019.1
2015-Mar-17 04:28N 39°19' W 070°54'2119.5
2015-Mar-17 03:24N 39°11' W 070°29'1213.9
2015-Mar-17 02:32N 39°06' W 070°15'  

Dump ship's entire track history